Time;durP1;ratioP1;P1;durP2;ratioP2;P2;SDS_P1;SDS_P2;PMS_P1;PMS_P2;Temp;Humidity;BMP_temperature;BMP_pressure;BME280_temperature;BME280_humidity;BME280_pressure;Samples;Min_cycle;Max_cycle;Signal;HPM_P1;HPM_P2
2023/06/22 00:01:58;;;;;;;1.20;1.20;;;18.40;99.90;;;;;;5040555;28;20059;-82
2023/06/22 00:04:25;;;;;;;1.20;1.20;;;18.50;99.90;;;;;;5041088;28;20098;-82
2023/06/22 00:06:50;;;;;;;1.30;1.30;;;18.60;99.90;;;;;;5048650;28;20048;-82
2023/06/22 00:09:16;;;;;;;1.20;1.20;;;18.60;99.90;;;;;;5046827;28;20049;-82
2023/06/22 00:11:42;;;;;;;1.20;1.20;;;18.50;99.90;;;;;;5046478;28;20069;-82
2023/06/22 00:14:07;;;;;;;1.30;1.30;;;18.40;99.90;;;;;;5047940;28;20123;-82
2023/06/22 00:16:33;;;;;;;1.30;1.30;;;18.40;99.90;;;;;;5043825;28;20074;-82
2023/06/22 00:19:00;;;;;;;1.20;1.20;;;18.50;99.90;;;;;;5049212;28;20036;-82
2023/06/22 00:21:30;;;;;;;1.30;1.30;;;18.50;99.90;;;;;;5044644;28;20599;-82
2023/06/22 00:23:57;;;;;;;1.55;1.45;;;18.50;99.90;;;;;;5046978;28;20044;-82
2023/06/22 00:26:23;;;;;;;1.30;1.30;;;18.40;99.90;;;;;;5046988;28;20078;-82
2023/06/22 00:28:49;;;;;;;1.30;1.30;;;18.40;99.90;;;;;;5047382;28;20123;-82
2023/06/22 00:31:14;;;;;;;1.38;1.30;;;18.40;99.90;;;;;;5048650;28;20520;-83
2023/06/22 00:33:40;;;;;;;1.38;1.38;;;18.40;99.90;;;;;;5046025;28;20117;-82
2023/06/22 00:36:13;;;;;;;1.50;1.40;;;18.40;99.90;;;;;;5030745;28;20552;-82
2023/06/22 00:38:40;;;;;;;1.50;1.40;;;18.40;99.90;;;;;;5046754;28;20048;-82
2023/06/22 00:41:05;;;;;;;1.58;1.48;;;18.30;99.90;;;;;;5044528;28;20041;-82
2023/06/22 00:43:31;;;;;;;1.50;1.40;;;18.40;99.90;;;;;;5046306;28;20394;-83
2023/06/22 00:45:57;;;;;;;1.60;1.50;;;18.30;99.90;;;;;;5044578;28;20553;-82
2023/06/22 00:48:22;;;;;;;1.60;1.50;;;18.20;99.90;;;;;;5046606;28;20109;-82
2023/06/22 00:50:50;;;;;;;1.70;1.60;;;18.10;99.90;;;;;;5046917;28;20068;-82
2023/06/22 00:53:17;;;;;;;1.67;1.58;;;18.10;99.90;;;;;;5045886;28;20044;-82
2023/06/22 00:55:45;;;;;;;1.88;1.77;;;18.10;99.90;;;;;;5043522;28;20052;-82
2023/06/22 00:58:11;;;;;;;1.70;1.60;;;18.00;99.90;;;;;;5043725;28;20109;-82
2023/06/22 01:00:38;;;;;;;1.63;1.52;;;18.10;99.90;;;;;;5042363;28;20127;-82
2023/06/22 01:03:08;;;;;;;1.70;1.60;;;18.00;99.90;;;;;;5045348;28;20052;-82
2023/06/22 01:05:35;;;;;;;2.00;1.90;;;18.00;99.90;;;;;;5043387;28;20044;-82
2023/06/22 01:08:19;;;;;;;1.80;1.70;;;18.00;99.90;;;;;;5048935;28;20044;-82
2023/06/22 01:11:00;;;;;;;2.00;1.90;;;18.00;99.90;;;;;;5043420;28;20048;-82
2023/06/22 01:14:02;;;;;;;2.00;1.90;;;18.00;99.90;;;;;;5044560;28;20052;-81
2023/06/22 01:16:31;;;;;;;2.05;1.95;;;17.90;99.90;;;;;;5043949;28;20052;-82
2023/06/22 01:19:01;;;;;;;1.95;1.85;;;17.90;99.90;;;;;;5046413;28;20067;-82
2023/06/22 01:21:30;;;;;;;2.00;1.90;;;17.80;99.90;;;;;;5046092;28;20568;-82
2023/06/22 01:24:21;;;;;;;2.05;1.95;;;17.80;99.90;;;;;;5044952;28;20040;-82
2023/06/22 01:27:28;;;;;;;2.20;2.10;;;17.70;99.90;;;;;;5039357;28;20139;-82
2023/06/22 01:30:03;;;;;;;2.20;2.10;;;17.80;99.90;;;;;;5047582;28;20072;-81
2023/06/22 01:32:32;;;;;;;2.22;2.13;;;17.80;99.90;;;;;;5045576;28;20060;-83
2023/06/22 01:35:01;;;;;;;2.22;2.13;;;17.80;99.90;;;;;;5042377;28;20492;-81
2023/06/22 01:37:28;;;;;;;2.15;2.05;;;17.80;99.90;;;;;;5047625;28;20049;-82
2023/06/22 01:39:55;;;;;;;2.08;1.98;;;17.80;99.90;;;;;;5047333;28;20632;-82
2023/06/22 01:42:23;;;;;;;2.03;1.92;;;17.80;99.90;;;;;;5045361;28;20463;-82
2023/06/22 01:44:50;;;;;;;2.33;2.22;;;17.90;99.90;;;;;;5061943;28;20398;-83
2023/06/22 01:47:17;;;;;;;2.25;2.15;;;17.70;99.90;;;;;;5063037;28;20386;-82
2023/06/22 01:49:43;;;;;;;2.22;2.13;;;17.60;99.90;;;;;;5045502;28;20048;-81
2023/06/22 01:52:09;;;;;;;2.35;2.25;;;17.70;99.90;;;;;;5045393;28;20605;-82
2023/06/22 01:54:36;;;;;;;2.28;2.17;;;17.60;99.90;;;;;;5046504;28;20053;-82
2023/06/22 01:57:02;;;;;;;2.60;2.40;;;17.70;99.90;;;;;;5025861;28;20048;-81
2023/06/22 01:59:50;;;;;;;2.13;2.03;;;17.60;99.90;;;;;;5062426;28;20043;-82
2023/06/22 02:02:20;;;;;;;2.50;2.40;;;17.60;99.90;;;;;;5040896;28;20052;-82
2023/06/22 02:05:11;;;;;;;2.45;2.35;;;17.60;99.90;;;;;;5041765;28;20521;-81
2023/06/22 02:07:56;;;;;;;2.50;2.40;;;17.50;99.90;;;;;;5043622;28;20405;-82
2023/06/22 02:10:23;;;;;;;2.50;2.40;;;17.40;99.90;;;;;;5045468;28;20469;-82
2023/06/22 02:12:51;;;;;;;2.50;2.40;;;17.30;99.90;;;;;;5043718;28;20057;-82
2023/06/22 02:15:17;;;;;;;2.50;2.40;;;17.40;99.90;;;;;;5043037;28;20596;-82
2023/06/22 02:17:45;;;;;;;2.35;2.25;;;17.40;99.90;;;;;;5044725;28;20123;-81
2023/06/22 02:20:13;;;;;;;2.58;2.47;;;17.50;99.90;;;;;;5042654;28;20048;-82
2023/06/22 02:22:39;;;;;;;2.58;2.47;;;17.60;99.90;;;;;;5059128;28;20136;-82
2023/06/22 02:25:04;;;;;;;2.40;2.30;;;17.60;99.90;;;;;;5044622;28;20052;-82
2023/06/22 02:27:30;;;;;;;2.47;2.38;;;17.60;99.90;;;;;;5026023;28;20055;-82
2023/06/22 02:29:56;;;;;;;2.40;2.30;;;17.50;99.90;;;;;;5044543;28;20095;-82
2023/06/22 02:32:22;;;;;;;2.47;2.38;;;17.50;99.90;;;;;;5045488;28;20505;-82
2023/06/22 02:34:47;;;;;;;2.38;2.28;;;17.40;99.90;;;;;;5044771;28;20075;-82
2023/06/22 02:37:17;;;;;;;2.20;2.10;;;17.30;99.90;;;;;;5044987;28;20044;-83
2023/06/22 02:39:42;;;;;;;2.30;2.20;;;17.30;99.90;;;;;;5045669;28;20044;-82
2023/06/22 02:42:10;;;;;;;2.08;1.98;;;17.10;99.90;;;;;;5025345;28;20784;-82
2023/06/22 02:44:36;;;;;;;2.00;1.90;;;17.00;99.90;;;;;;5045308;28;20048;-81
2023/06/22 02:47:02;;;;;;;2.00;1.90;;;17.10;99.90;;;;;;5045019;28;20075;-82
2023/06/22 02:49:28;;;;;;;1.90;1.80;;;17.10;99.90;;;;;;5044775;28;20072;-82
2023/06/22 02:51:55;;;;;;;1.90;1.80;;;17.00;99.90;;;;;;5045398;28;20087;-82
2023/06/22 02:54:20;;;;;;;1.80;1.70;;;17.20;99.90;;;;;;5046211;28;20040;-82
2023/06/22 02:56:46;;;;;;;1.70;1.60;;;17.10;99.90;;;;;;5044424;28;20047;-82
2023/06/22 02:59:12;;;;;;;1.73;1.63;;;17.10;99.90;;;;;;5045712;28;20123;-82
2023/06/22 03:01:39;;;;;;;1.80;1.70;;;17.10;99.90;;;;;;5045943;28;20082;-81
2023/06/22 03:04:07;;;;;;;1.80;1.70;;;17.10;99.90;;;;;;5045307;28;20048;-82
2023/06/22 03:06:32;;;;;;;1.70;1.60;;;17.00;99.90;;;;;;5044283;28;20049;-81
2023/06/22 03:09:04;;;;;;;1.70;1.60;;;16.90;99.90;;;;;;5061048;28;20070;-81
2023/06/22 03:11:31;;;;;;;1.70;1.60;;;16.90;99.90;;;;;;5047300;28;20048;-81
2023/06/22 03:13:57;;;;;;;1.67;1.58;;;16.80;99.90;;;;;;5029402;28;20056;-82
2023/06/22 03:16:23;;;;;;;1.67;1.58;;;16.70;99.90;;;;;;5043870;28;20127;-81
2023/06/22 03:18:48;;;;;;;1.60;1.50;;;16.80;99.90;;;;;;5044224;28;20557;-82
2023/06/22 03:21:15;;;;;;;1.60;1.50;;;16.80;99.90;;;;;;5063610;28;20127;-81
2023/06/22 03:23:41;;;;;;;1.60;1.50;;;16.80;99.90;;;;;;5045083;28;20162;-81
2023/06/22 03:26:09;;;;;;;1.60;1.50;;;16.80;99.90;;;;;;5029159;28;20494;-81
2023/06/22 03:28:34;;;;;;;1.70;1.60;;;16.80;99.90;;;;;;5044681;28;20079;-81
2023/06/22 03:31:00;;;;;;;1.67;1.58;;;16.70;99.90;;;;;;5045140;28;20048;-81
2023/06/22 03:33:26;;;;;;;1.60;1.50;;;16.80;99.90;;;;;;5045003;28;20133;-81
2023/06/22 03:35:51;;;;;;;1.67;1.58;;;16.80;99.90;;;;;;5043013;28;20086;-81
2023/06/22 03:38:17;;;;;;;1.75;1.65;;;16.70;99.90;;;;;;5045290;28;20611;-81
2023/06/22 03:40:43;;;;;;;1.90;1.80;;;16.80;99.90;;;;;;5047198;28;20037;-81
2023/06/22 03:43:09;;;;;;;1.77;1.67;;;16.90;99.90;;;;;;5047674;28;20498;-81
2023/06/22 03:45:34;;;;;;;1.88;1.77;;;16.90;99.90;;;;;;5046538;28;20067;-82
2023/06/22 03:48:01;;;;;;;1.83;1.73;;;16.90;99.90;;;;;;5045717;28;20140;-81
2023/06/22 03:50:27;;;;;;;1.80;1.70;;;16.80;99.90;;;;;;5047892;28;20040;-82
2023/06/22 03:52:52;;;;;;;1.67;1.58;;;16.90;99.90;;;;;;5047893;28;20063;-82
2023/06/22 03:55:20;;;;;;;1.67;1.58;;;16.90;99.90;;;;;;5049957;28;20048;-81
2023/06/22 03:57:46;;;;;;;1.65;1.55;;;17.00;99.90;;;;;;5048340;28;20052;-82
2023/06/22 04:00:12;;;;;;;1.65;1.55;;;17.00;99.90;;;;;;5052055;28;20104;-82
2023/06/22 04:02:38;;;;;;;1.65;1.55;;;17.00;99.90;;;;;;5048452;28;20398;-82
2023/06/22 04:05:04;;;;;;;1.58;1.48;;;17.10;99.90;;;;;;5037835;28;20127;-82
2023/06/22 04:07:30;;;;;;;1.52;1.42;;;17.10;99.90;;;;;;5049682;28;20452;-82
2023/06/22 04:09:56;;;;;;;1.65;1.55;;;17.10;99.90;;;;;;5048918;28;20044;-81
2023/06/22 04:12:22;;;;;;;1.63;1.52;;;17.10;99.90;;;;;;5048901;28;20041;-82
2023/06/22 04:14:47;;;;;;;1.77;1.67;;;17.10;99.90;;;;;;5049252;28;20044;-82
2023/06/22 04:17:14;;;;;;;1.73;1.63;;;17.20;99.90;;;;;;5048152;28;20048;-82
2023/06/22 04:19:40;;;;;;;1.77;1.67;;;17.10;99.90;;;;;;5065912;28;20051;-82
2023/06/22 04:22:07;;;;;;;1.70;1.60;;;17.00;99.90;;;;;;5048473;28;20819;-82
2023/06/22 04:24:33;;;;;;;1.83;1.73;;;17.30;99.90;;;;;;5047945;28;20051;-81
2023/06/22 04:27:00;;;;;;;1.70;1.60;;;17.20;99.90;;;;;;5046643;28;20493;-82
2023/06/22 04:29:28;;;;;;;1.67;1.58;;;17.30;99.90;;;;;;5047481;28;20056;-82
2023/06/22 04:31:55;;;;;;;1.65;1.55;;;17.40;99.90;;;;;;5031247;28;20383;-82
2023/06/22 04:34:21;;;;;;;1.65;1.55;;;17.30;99.90;;;;;;5047963;28;20073;-82
2023/06/22 04:36:47;;;;;;;1.65;1.55;;;17.30;99.90;;;;;;5047158;28;20044;-82
2023/06/22 04:39:12;;;;;;;1.80;1.70;;;17.40;99.90;;;;;;5048066;28;20417;-82
2023/06/22 04:41:42;;;;;;;1.73;1.63;;;17.50;99.90;;;;;;5047153;28;20052;-82
2023/06/22 04:44:24;;;;;;;1.75;1.65;;;17.60;99.90;;;;;;5048410;28;20114;-82
2023/06/22 04:46:53;;;;;;;1.92;1.83;;;18.00;99.90;;;;;;5047097;28;20052;-82
2023/06/22 04:49:20;;;;;;;1.75;1.65;;;18.20;99.90;;;;;;5046431;28;20452;-82
2023/06/22 04:51:46;;;;;;;1.80;1.70;;;18.70;99.90;;;;;;5044369;28;20469;-81
2023/06/22 04:54:12;;;;;;;1.70;1.60;;;20.20;99.90;;;;;;5067157;28;20127;-82
2023/06/22 04:56:40;;;;;;;1.58;1.48;;;20.80;99.90;;;;;;5044541;28;20049;-82
2023/06/22 04:59:07;;;;;;;1.30;1.30;;;21.80;99.90;;;;;;5045972;28;20079;-83
2023/06/22 05:01:34;;;;;;;1.13;1.13;;;22.80;99.90;;;;;;5028197;28;20044;-83
2023/06/22 05:04:01;;;;;;;1.75;1.65;;;23.40;99.90;;;;;;5044515;28;20490;-82
2023/06/22 05:06:27;;;;;;;2.13;2.03;;;23.70;99.90;;;;;;5045689;28;20054;-83
2023/06/22 05:08:59;;;;;;;2.15;2.05;;;24.50;99.90;;;;;;5061386;28;20076;-82
2023/06/22 05:11:29;;;;;;;2.45;2.35;;;25.20;99.90;;;;;;5046097;28;20041;-83
2023/06/22 05:13:56;;;;;;;2.10;2.00;;;25.40;99.90;;;;;;5046470;28;20770;-83
2023/06/22 05:16:23;;;;;;;2.13;2.03;;;25.70;99.90;;;;;;5047102;28;20139;-83
2023/06/22 05:18:51;;;;;;;3.45;2.30;;;26.20;99.90;;;;;;5044728;28;20052;-83
2023/06/22 05:21:17;;;;;;;2.10;2.00;;;26.00;99.90;;;;;;5049304;28;20522;-83
2023/06/22 05:23:43;;;;;;;2.13;2.03;;;26.30;99.90;;;;;;5046511;28;20064;-83
2023/06/22 05:26:10;;;;;;;2.10;2.00;;;26.30;99.90;;;;;;5047209;28;20135;-83
2023/06/22 05:28:35;;;;;;;1.83;1.73;;;26.60;99.90;;;;;;5046718;28;20041;-83
2023/06/22 05:31:01;;;;;;;2.00;1.90;;;27.60;99.90;;;;;;5044600;28;20050;-83
2023/06/22 05:33:27;;;;;;;1.77;1.67;;;27.80;99.90;;;;;;5047606;28;20048;-82
2023/06/22 05:35:52;;;;;;;1.30;1.20;;;27.50;99.90;;;;;;5045492;28;20041;-82
2023/06/22 05:38:18;;;;;;;1.70;1.60;;;27.00;99.90;;;;;;5044567;28;20465;-83
2023/06/22 05:40:43;;;;;;;2.05;1.95;;;26.90;99.90;;;;;;5046022;28;20523;-83
2023/06/22 05:43:09;;;;;;;2.03;1.92;;;26.90;99.90;;;;;;5043133;28;20048;-82
2023/06/22 05:45:35;;;;;;;1.70;1.60;;;26.00;99.90;;;;;;5047119;28;20083;-83
2023/06/22 05:48:01;;;;;;;1.30;1.30;;;25.50;99.90;;;;;;5046754;28;20129;-82
2023/06/22 05:50:27;;;;;;;1.30;1.30;;;24.30;99.90;;;;;;5048781;28;20037;-82
2023/06/22 05:52:52;;;;;;;1.38;1.35;;;23.70;99.90;;;;;;5047723;28;20055;-82
2023/06/22 05:55:18;;;;;;;1.80;1.70;;;23.10;99.90;;;;;;5029569;28;20955;-83
2023/06/22 05:57:44;;;;;;;1.58;1.48;;;23.30;99.90;;;;;;5047734;28;20049;-83
2023/06/22 06:00:11;;;;;;;1.00;1.00;;;22.90;99.90;;;;;;5032079;28;20036;-83
2023/06/22 06:02:43;;;;;;;0.90;0.90;;;23.20;99.90;;;;;;5046124;28;20094;-83
2023/06/22 06:05:14;;;;;;;0.90;0.90;;;23.50;99.90;;;;;;5031203;28;20063;-83
2023/06/22 06:07:40;;;;;;;0.90;0.90;;;23.50;99.90;;;;;;5066400;28;20055;-83
2023/06/22 06:10:06;;;;;;;0.90;0.90;;;23.40;99.90;;;;;;5031142;28;20049;-83
2023/06/22 06:12:32;;;;;;;0.98;0.98;;;23.70;99.90;;;;;;5047262;28;20044;-82
2023/06/22 06:14:58;;;;;;;0.90;0.90;;;23.70;99.90;;;;;;5066136;28;20051;-82
2023/06/22 06:17:23;;;;;;;0.90;0.90;;;23.50;99.90;;;;;;5065149;28;20531;-81
2023/06/22 06:19:49;;;;;;;0.80;0.80;;;23.70;99.90;;;;;;5048028;28;20056;-82
2023/06/22 06:22:15;;;;;;;1.00;1.00;;;23.70;99.90;;;;;;5047889;28;20548;-82
2023/06/22 06:24:41;;;;;;;0.90;0.90;;;23.70;99.90;;;;;;5047765;28;20541;-83
2023/06/22 06:27:06;;;;;;;1.00;1.00;;;24.10;99.90;;;;;;5048295;28;20456;-84
2023/06/22 06:29:32;;;;;;;1.00;1.00;;;24.10;99.90;;;;;;5048582;28;20052;-82
2023/06/22 06:31:58;;;;;;;0.73;0.73;;;24.40;99.90;;;;;;5047127;28;20109;-83
2023/06/22 06:34:23;;;;;;;0.77;0.77;;;24.50;99.90;;;;;;5047718;28;20048;-83
2023/06/22 06:36:49;;;;;;;0.55;0.55;;;24.20;99.90;;;;;;5030776;28;20397;-84
2023/06/22 06:39:15;;;;;;;0.80;0.80;;;23.90;99.90;;;;;;5048208;28;20048;-83
2023/06/22 06:41:41;;;;;;;0.75;0.75;;;24.10;99.90;;;;;;5047931;28;20048;-82
2023/06/22 06:44:07;;;;;;;0.70;0.70;;;22.50;99.90;;;;;;5030889;28;20086;-83
2023/06/22 06:46:33;;;;;;;0.50;0.50;;;22.60;99.90;;;;;;5065447;28;20759;-83
2023/06/22 06:48:58;;;;;;;1.00;1.00;;;23.00;99.90;;;;;;5046734;28;20052;-83
2023/06/22 06:51:24;;;;;;;0.60;0.60;;;22.70;99.90;;;;;;5045706;28;20049;-83
2023/06/22 06:53:49;;;;;;;1.00;1.00;;;23.00;99.90;;;;;;5063706;28;20626;-82
2023/06/22 06:56:16;;;;;;;0.93;0.93;;;23.50;99.90;;;;;;5047834;28;20513;-83
2023/06/22 06:58:42;;;;;;;0.90;0.90;;;23.40;99.90;;;;;;5047740;28;20052;-83
2023/06/22 07:01:08;;;;;;;0.98;0.98;;;23.70;99.90;;;;;;5047332;28;20041;-83
2023/06/22 07:03:34;;;;;;;1.00;1.00;;;23.70;99.90;;;;;;5063827;28;20036;-83
2023/06/22 07:06:00;;;;;;;0.70;0.70;;;23.90;99.90;;;;;;5047629;28;20048;-82
2023/06/22 07:08:26;;;;;;;0.93;0.93;;;23.80;99.90;;;;;;5047128;28;20048;-83
2023/06/22 07:10:54;;;;;;;0.70;0.70;;;24.20;99.90;;;;;;5047917;28;20402;-83
2023/06/22 07:13:20;;;;;;;1.25;0.80;;;24.00;99.90;;;;;;5045023;28;20041;-82
2023/06/22 07:15:46;;;;;;;0.75;0.75;;;23.80;99.90;;;;;;5047331;28;20493;-82
2023/06/22 07:18:11;;;;;;;0.70;0.70;;;24.20;99.90;;;;;;5048260;28;20143;-82
2023/06/22 07:20:39;;;;;;;0.70;0.70;;;23.50;99.90;;;;;;5049447;28;20048;-82
2023/06/22 07:23:05;;;;;;;0.90;0.90;;;24.00;99.90;;;;;;5045172;28;20060;-84
2023/06/22 07:25:32;;;;;;;0.80;0.80;;;24.00;99.90;;;;;;5045821;28;20095;-83
2023/06/22 07:27:57;;;;;;;0.80;0.80;;;23.40;99.90;;;;;;5048354;28;20520;-83
2023/06/22 07:30:23;;;;;;;1.00;1.00;;;23.50;99.90;;;;;;5047078;28;20048;-84
2023/06/22 07:32:49;;;;;;;0.77;0.77;;;24.20;99.90;;;;;;5046258;28;20063;-81
2023/06/22 07:35:16;;;;;;;0.30;0.30;;;24.30;99.90;;;;;;5063534;28;20502;-82
2023/06/22 07:37:42;;;;;;;0.63;0.63;;;24.50;99.90;;;;;;5047141;28;20117;-82
2023/06/22 07:40:09;;;;;;;0.70;0.70;;;24.50;99.90;;;;;;5030536;28;20080;-83
2023/06/22 07:42:35;;;;;;;0.60;0.60;;;24.50;99.90;;;;;;5030030;28;20091;-82
2023/06/22 07:45:03;;;;;;;0.30;0.30;;;24.60;99.90;;;;;;5047030;28;20086;-82
2023/06/22 07:47:29;;;;;;;0.77;0.77;;;24.50;99.90;;;;;;5047058;28;20053;-84
2023/06/22 07:49:58;;;;;;;0.75;0.75;;;24.60;99.90;;;;;;5047039;28;20408;-83
2023/06/22 07:52:25;;;;;;;0.40;0.40;;;24.80;99.90;;;;;;5046934;28;20094;-83
2023/06/22 07:54:51;;;;;;;0.32;0.32;;;24.30;99.90;;;;;;5046882;28;20082;-81
2023/06/22 07:57:16;;;;;;;0.77;0.77;;;24.50;99.90;;;;;;5046651;28;20033;-83
2023/06/22 07:59:42;;;;;;;0.45;0.45;;;24.80;99.90;;;;;;5030803;28;20737;-83
2023/06/22 08:02:09;;;;;;;0.73;0.73;;;24.90;99.90;;;;;;5044927;28;20053;-81
2023/06/22 08:04:35;;;;;;;0.30;0.30;;;24.60;99.90;;;;;;5060788;28;20045;-82
2023/06/22 08:07:01;;;;;;;0.43;0.43;;;25.40;99.90;;;;;;5028659;28;20141;-82
2023/06/22 08:09:31;;;;;;;0.85;0.85;;;25.40;99.90;;;;;;5037766;28;20107;-83
2023/06/22 08:11:58;;;;;;;0.32;0.32;;;25.00;99.90;;;;;;5045337;28;20052;-82
2023/06/22 08:14:25;;;;;;;0.30;0.30;;;25.60;99.90;;;;;;5046882;28;20052;-82
2023/06/22 08:16:50;;;;;;;0.20;0.20;;;24.90;99.90;;;;;;5045882;28;20547;-82
2023/06/22 08:19:16;;;;;;;0.30;0.30;;;24.40;99.90;;;;;;5046570;28;20127;-83
2023/06/22 08:21:42;;;;;;;0.30;0.30;;;24.60;99.90;;;;;;5046955;28;20053;-81
2023/06/22 08:24:08;;;;;;;0.40;0.40;;;24.80;99.90;;;;;;5047065;28;20037;-84
2023/06/22 08:26:36;;;;;;;0.30;0.30;;;25.40;99.90;;;;;;5048379;28;21110;-82
2023/06/22 08:29:05;;;;;;;0.50;0.50;;;25.40;99.90;;;;;;5065577;28;20049;-82
2023/06/22 08:31:33;;;;;;;0.30;0.30;;;25.90;99.90;;;;;;5068073;28;20736;-84
2023/06/22 08:33:59;;;;;;;0.30;0.30;;;26.00;99.90;;;;;;5049422;28;20174;-82
2023/06/22 08:36:24;;;;;;;0.30;0.30;;;25.40;99.90;;;;;;5050010;28;20564;-83
2023/06/22 08:38:51;;;;;;;0.30;0.30;;;25.30;99.90;;;;;;5050135;28;20048;-82
2023/06/22 08:41:19;;;;;;;0.30;0.30;;;26.00;99.90;;;;;;5068139;28;20519;-83
2023/06/22 08:43:45;;;;;;;0.30;0.30;;;26.10;99.90;;;;;;5048758;28;20139;-82
2023/06/22 08:46:11;;;;;;;0.28;0.28;;;26.50;99.90;;;;;;5049566;28;20139;-81
2023/06/22 08:48:37;;;;;;;0.40;0.40;;;26.20;99.90;;;;;;5049866;28;20247;-82
2023/06/22 08:51:03;;;;;;;0.38;0.38;;;25.30;99.90;;;;;;5049757;28;20098;-84
2023/06/22 08:53:28;;;;;;;0.30;0.30;;;26.20;99.90;;;;;;5049411;28;20050;-82
2023/06/22 08:55:54;;;;;;;0.40;0.40;;;25.80;99.90;;;;;;5067463;28;20045;-82
2023/06/22 08:58:21;;;;;;;0.30;0.30;;;26.00;99.90;;;;;;5050066;28;20036;-81
2023/06/22 09:00:47;;;;;;;0.30;0.30;;;26.50;99.90;;;;;;5032703;28;20053;-82
2023/06/22 09:03:13;;;;;;;0.30;0.30;;;25.70;99.90;;;;;;5049131;28;20040;-82
2023/06/22 09:05:39;;;;;;;0.30;0.30;;;26.30;99.90;;;;;;5050009;28;20053;-82
2023/06/22 09:08:04;;;;;;;0.40;0.40;;;26.20;99.90;;;;;;5049370;28;20052;-82
2023/06/22 09:10:30;;;;;;;0.30;0.30;;;26.50;99.90;;;;;;5047233;28;20076;-82
2023/06/22 09:12:57;;;;;;;0.30;0.30;;;26.10;99.90;;;;;;5063844;28;20082;-83
2023/06/22 09:15:23;;;;;;;0.20;0.20;;;26.30;99.90;;;;;;5049633;28;20044;-82
2023/06/22 09:17:48;;;;;;;0.30;0.30;;;26.70;99.90;;;;;;5066214;28;20123;-83
2023/06/22 09:20:15;;;;;;;1.33;0.60;;;26.20;99.90;;;;;;5049616;28;20044;-82
2023/06/22 09:22:41;;;;;;;0.30;0.30;;;25.90;99.90;;;;;;5066661;28;20071;-84
2023/06/22 09:25:07;;;;;;;0.35;0.35;;;26.70;99.90;;;;;;5049090;28;20127;-82
2023/06/22 09:27:33;;;;;;;0.30;0.30;;;26.60;99.90;;;;;;5049327;28;20076;-82
2023/06/22 09:29:58;;;;;;;0.30;0.30;;;27.00;99.90;;;;;;5066626;28;20076;-81
2023/06/22 09:32:25;;;;;;;0.30;0.30;;;26.50;99.90;;;;;;5048713;28;20129;-82
2023/06/22 09:34:51;;;;;;;0.30;0.30;;;26.90;99.90;;;;;;5029278;28;20081;-82
2023/06/22 09:37:16;;;;;;;0.30;0.30;;;26.90;99.90;;;;;;5065353;28;20134;-82
2023/06/22 09:39:42;;;;;;;0.40;0.40;;;27.40;99.90;;;;;;5050250;28;20045;-84
2023/06/22 09:42:08;;;;;;;0.30;0.30;;;27.60;99.90;;;;;;5048349;28;20048;-82
2023/06/22 09:44:34;;;;;;;0.20;0.20;;;27.50;99.90;;;;;;5047329;28;20040;-82
2023/06/22 09:47:00;;;;;;;0.38;0.38;;;27.50;99.90;;;;;;5048350;28;20508;-81
2023/06/22 09:49:25;;;;;;;0.30;0.30;;;27.30;99.90;;;;;;5048329;28;20571;-82
2023/06/22 09:51:52;;;;;;;0.30;0.30;;;27.30;99.90;;;;;;5048460;28;20049;-83
2023/06/22 09:54:18;;;;;;;0.20;0.20;;;27.50;99.90;;;;;;5045288;28;20071;-82
2023/06/22 09:56:43;;;;;;;0.30;0.30;;;26.90;99.90;;;;;;5066657;28;20036;-82
2023/06/22 09:59:09;;;;;;;0.22;0.22;;;27.10;99.90;;;;;;5049674;28;20397;-82
2023/06/22 10:01:35;;;;;;;0.40;0.40;;;27.80;99.90;;;;;;5066312;28;20174;-83
2023/06/22 10:04:02;;;;;;;0.30;0.30;;;28.00;99.90;;;;;;5047465;28;20041;-83
2023/06/22 10:06:27;;;;;;;0.40;0.40;;;27.90;99.90;;;;;;5046985;28;20055;-82
2023/06/22 10:08:53;;;;;;;0.25;0.25;;;27.90;99.90;;;;;;5047404;28;20052;-82
2023/06/22 10:11:19;;;;;;;0.30;0.30;;;27.70;99.90;;;;;;5031451;28;20106;-84
2023/06/22 10:13:44;;;;;;;0.30;0.30;;;28.10;99.90;;;;;;5048106;28;20428;-83
2023/06/22 10:16:10;;;;;;;0.65;0.65;;;28.00;99.90;;;;;;5048158;28;20183;-82
2023/06/22 10:18:36;;;;;;;0.20;0.20;;;28.70;99.90;;;;;;5048380;28;20436;-83
2023/06/22 10:21:02;;;;;;;0.20;0.20;;;29.00;99.90;;;;;;5031463;28;20127;-82
2023/06/22 10:23:27;;;;;;;0.20;0.20;;;28.90;99.90;;;;;;5047615;28;20043;-81
2023/06/22 10:25:53;;;;;;;0.30;0.30;;;29.30;99.90;;;;;;5047838;28;20087;-82
2023/06/22 10:28:19;;;;;;;0.20;0.20;;;29.30;99.90;;;;;;5047814;28;20127;-83
2023/06/22 10:30:45;;;;;;;0.30;0.30;;;28.70;99.90;;;;;;5047513;28;20052;-83
2023/06/22 10:33:11;;;;;;;0.30;0.30;;;28.20;99.90;;;;;;5065585;28;20109;-83
2023/06/22 10:35:38;;;;;;;0.20;0.20;;;28.50;99.90;;;;;;5029048;28;20052;-84
2023/06/22 10:38:03;;;;;;;0.30;0.30;;;28.60;99.90;;;;;;5047696;28;20052;-83
2023/06/22 10:40:29;;;;;;;0.30;0.30;;;28.30;99.90;;;;;;5048018;28;20044;-84
2023/06/22 10:42:55;;;;;;;0.30;0.30;;;27.80;99.90;;;;;;5047157;28;20047;-83
2023/06/22 10:45:20;;;;;;;0.20;0.20;;;28.50;99.90;;;;;;5047677;28;20161;-82
2023/06/22 10:47:46;;;;;;;0.30;0.30;;;28.80;99.90;;;;;;5065800;28;20044;-83
2023/06/22 10:50:13;;;;;;;0.30;0.30;;;28.60;99.90;;;;;;5046993;28;20548;-82
2023/06/22 10:52:39;;;;;;;0.30;0.30;;;28.90;99.90;;;;;;5046751;28;20044;-83
2023/06/22 10:55:05;;;;;;;0.30;0.30;;;28.90;99.90;;;;;;5047740;28;20059;-83
2023/06/22 10:57:31;;;;;;;0.30;0.30;;;28.40;99.90;;;;;;5047546;28;20076;-83
2023/06/22 10:59:57;;;;;;;0.20;0.20;;;28.90;99.90;;;;;;5047477;28;20520;-83
2023/06/22 11:02:24;;;;;;;0.20;0.20;;;28.40;99.90;;;;;;5047234;28;20048;-81
2023/06/22 11:04:50;;;;;;;0.30;0.30;;;28.10;99.90;;;;;;5047564;28;21482;-81
2023/06/22 11:07:16;;;;;;;0.65;0.30;;;28.20;99.90;;;;;;5064840;28;20067;-81
2023/06/22 11:09:43;;;;;;;0.30;0.30;;;27.40;99.90;;;;;;5047426;28;20799;-83
2023/06/22 11:12:09;;;;;;;0.20;0.20;;;27.00;99.90;;;;;;5045573;28;20052;-82
2023/06/22 11:14:35;;;;;;;0.30;0.30;;;27.00;99.90;;;;;;5048488;28;20052;-81
2023/06/22 11:17:00;;;;;;;0.28;0.28;;;26.80;99.90;;;;;;5047174;28;20066;-83
2023/06/22 11:19:26;;;;;;;0.30;0.30;;;27.30;99.90;;;;;;5047347;28;20044;-81
2023/06/22 11:21:52;;;;;;;0.30;0.30;;;27.40;99.90;;;;;;5049310;28;20140;-82
2023/06/22 11:24:17;;;;;;;0.28;0.28;;;26.90;99.90;;;;;;5047559;28;20127;-82
2023/06/22 11:26:43;;;;;;;0.20;0.20;;;26.70;99.90;;;;;;5046953;28;20464;-83
2023/06/22 11:29:09;;;;;;;0.25;0.25;;;27.20;99.90;;;;;;5046895;28;20056;-82
2023/06/22 11:31:35;;;;;;;0.30;0.30;;;27.10;99.90;;;;;;5046995;28;20053;-83
2023/06/22 11:34:01;;;;;;;0.30;0.30;;;27.00;99.90;;;;;;5046637;28;20077;-82
2023/06/22 11:36:27;;;;;;;0.30;0.30;;;26.90;99.90;;;;;;5046048;28;20131;-83
2023/06/22 11:38:53;;;;;;;0.30;0.30;;;27.10;99.90;;;;;;5064837;28;20135;-82
2023/06/22 11:41:19;;;;;;;0.30;0.30;;;27.10;99.90;;;;;;5045930;28;20060;-83
2023/06/22 11:43:44;;;;;;;0.30;0.30;;;27.20;99.90;;;;;;5046921;28;20908;-81
2023/06/22 11:46:10;;;;;;;0.30;0.30;;;26.90;99.90;;;;;;5046634;28;20048;-81
2023/06/22 11:48:36;;;;;;;0.30;0.30;;;26.90;99.90;;;;;;5064676;28;20413;-83
2023/06/22 11:51:03;;;;;;;0.20;0.20;;;26.50;99.90;;;;;;5046949;28;20052;-82
2023/06/22 11:53:28;;;;;;;0.30;0.30;;;26.80;99.90;;;;;;5046397;28;20389;-83
2023/06/22 11:55:55;;;;;;;0.20;0.20;;;27.10;99.90;;;;;;5046541;28;20048;-83
2023/06/22 11:58:21;;;;;;;0.30;0.30;;;26.80;99.90;;;;;;5047301;28;20048;-83
2023/06/22 12:00:46;;;;;;;0.30;0.30;;;26.70;99.90;;;;;;5032724;28;20051;-84
2023/06/22 12:03:12;;;;;;;0.30;0.30;;;27.10;99.90;;;;;;5050603;28;20460;-82
2023/06/22 12:05:38;;;;;;;0.30;0.30;;;26.90;99.90;;;;;;5051308;28;20505;-84
2023/06/22 12:08:04;;;;;;;0.30;0.30;;;26.90;99.90;;;;;;5050406;28;20046;-83
2023/06/22 12:10:30;;;;;;;0.30;0.30;;;26.90;99.90;;;;;;5049283;28;20048;-83
2023/06/22 12:12:57;;;;;;;0.30;0.30;;;27.00;99.90;;;;;;5050245;28;20051;-82
2023/06/22 12:15:23;;;;;;;0.40;0.40;;;26.30;99.90;;;;;;5050718;28;20073;-83
2023/06/22 12:17:49;;;;;;;0.30;0.30;;;26.70;99.90;;;;;;5068177;28;20105;-84
2023/06/22 12:20:15;;;;;;;0.30;0.30;;;26.90;99.90;;;;;;5050527;28;20056;-84
2023/06/22 12:22:41;;;;;;;0.30;0.30;;;26.60;99.90;;;;;;5049543;28;20060;-83
2023/06/22 12:25:08;;;;;;;0.30;0.30;;;26.70;99.90;;;;;;5050372;28;20059;-83
2023/06/22 12:27:34;;;;;;;0.30;0.30;;;26.60;99.90;;;;;;5050686;28;20044;-83
2023/06/22 12:30:00;;;;;;;0.30;0.30;;;26.70;99.90;;;;;;5068623;28;20398;-83
2023/06/22 12:32:26;;;;;;;0.30;0.30;;;26.50;99.90;;;;;;5050138;28;20078;-82
2023/06/22 12:34:51;;;;;;;0.30;0.30;;;26.40;99.90;;;;;;5049858;28;20055;-83
2023/06/22 12:37:42;;;;;;;0.45;0.38;;;26.30;99.90;;;;;;5067780;28;20045;-82
2023/06/22 12:40:09;;;;;;;0.50;0.50;;;26.30;99.90;;;;;;5049418;28;20037;-83
2023/06/22 12:42:35;;;;;;;0.30;0.30;;;26.00;99.90;;;;;;5049834;28;20080;-83
2023/06/22 12:45:00;;;;;;;0.30;0.30;;;25.80;99.90;;;;;;5050130;28;20075;-83
2023/06/22 12:47:26;;;;;;;0.22;0.22;;;25.90;99.90;;;;;;5051920;28;20378;-82